首页
METAR-TAF:

METAR-TAF

机场 :

薩拉熱窩國際機場

塞拉耶佛, 波斯尼亚和黑塞哥维那

纬度: 43-49N, 经度: 018-20E, 海拔: 511米

当前天气观测

该预报发布于35分钟前的08:30 UTC
风速2节,风向多变
温度 11°C
湿度 100%
气压 1021 hPa
能見度: 3000
散云层高于300英尺
轻雾

METAR: LQSA 170830Z VRB02KT 3000 BR SCT003 11/11 Q1021 BECMG 5000

时间: 11:05 (09:05 UTC)

预报

该预报发布于4小时和5分钟前的05:00 UTC
预报有效从17日的 06点(UTC)到 18日的 06点(UTC)
风速2节,风向多变
能见度10公里或以上
1500米以下无云,无积雨云
几率 30% :
短暂存在
从 17日的 06点(UTC)到 17日的 08点(UTC)
能見度: 0400
多云层高于100英尺
几率 30% :
短暂存在
从 18日的 04点(UTC)到 18日的 06点(UTC)
能見度: 0500
多云层高于200英尺

TAF: LQSA 170500Z 1706/1806 VRB02KT CAVOK TX22/1713Z TN06/1805Z PROB30 TEMPO 1706/1708 0400 FG BKN001 PROB30 TEMPO 1804/1806 0500 FG BKN002

超过4000个机场的气象观测和天气预报(METAR&TAF报告)。

可查询的气象台以黄色和红色小点在地图上表示。

将鼠标移到小点上方,可查看气象台名称。

然后点击查看天气观测和预报。

如需切换地图:点击带黑十字的绿色按钮放大地图;点击带横线的绿色按钮缩小地图;或者点击绿色箭头查看邻近地区的地图。


METAR-TAF: